Aktualne dane pomiarowe

Uwaga, wersja testowa! Automatyczne pobieranie danych za pomocą narzędzi lub skryptów to umożliwiających jest zabronione.

Dane meteo z obszaru Polski uzyskane na podstawie depesz SYNOP pobieranych co godzinę z NWS. Najedź myszką na symbol przedstawiony w tabeli, aby uzyskać informacje co do jego znaczenia. Prosimy pamiętać, że to testowa wersja strony, która jeszcze nie jest ukończona. Stworzono również jest krótki FAQ dotyczący korzystania z tej podstrony Anomalie temperatury w chwili obecnej odniesione są do okresu referencyjnego 1951-2016. Okres ten będzie później zmieniony na 1981-2010. Kliknij ikonę aby pobrać plik CSV. Kliknij ikonę aby wygenerować mapę synoptyczną dla danego terminu.

Wybierz Datę:    

        

Bielsko-Biała (12600)

Dane terminowe dla wybranej stacji. Kliknij datę, aby otrzymać dane z tego terminu dla wszystkich stacji.

TemperaturaZachmurzenieWiatrCiśnienieOpadyPogoda
 Data t td wb tx tn tg rh  Nt Nl Cl Cm Ch ws wd g1 g2 wx mslp ppp ch 24h 12h t ww ww w1 w2  
2019-07-04 23:00:00 12.9 6.0 8.9--- 6350.0wx-wx1wx--11018.7 971.2 -0.8---------
2019-07-04 22:00:00 13.7 6.3 9.4--- 6150.0wx-wx2wx--21019.0 971.6 -0.3---------
2019-07-04 21:00:00 14.0 6.4 9.6--- 6050.0wx-wx2wx--21019.0 971.7 -0.4---------
2019-07-04 20:00:00 14.0 6.1 9.5--- 5950.0wx-wx1wx--11019.3 972.0 -0.4---------
2019-07-04 19:00:00 15.6 6.8 10.6--- 5650.0wx-wx1wx--11019.0 971.9 -1.1---------
2019-07-04 18:00:00 21.0 4.5 12.2 22.4 15.1- 3450.0wx-wx1wx-911018.3 972.1 -1.4- 0.012------
2019-07-04 17:00:00 21.5 3.6 12.1--- 3150.0wx-wx2wx--21018.5 972.4 -1.6---------
2019-07-04 16:00:00 21.9 3.5 12.2--- 3050.0wx-wx2wx---1019.1 973.0 -1.4---------
2019-07-04 15:00:00 21.6 2.8 11.9--- 2950.0wx-3wx-931019.7 973.5 -1.4---------
2019-07-04 14:00:00 21.6 3.3 12.0--- 3050.0wx-wx4wx-941020.2 974.0 -1.4---------
2019-07-04 13:00:00 21.1 3.3 11.8--- 3150.0wxwxwx3wx--31020.7 974.4 -1.2---------
2019-07-04 12:00:00 20.2 3.4 11.4--- 3340.0wxwxwx3wx-831021.4 974.9 -0.8- 0.06------
2019-07-04 11:00:00 20.0 4.5 11.7--- 3640.0wxwxwx3wx8831021.9 975.4 -0.3---------
2019-07-04 10:00:00 19.1 4.1 11.2--- 3740.0wxwxwx3wx--31022.3 975.6 -0.1---------
2019-07-04 09:00:00 18.5 3.5 10.7--- 3740.0wxwxwx2wx--21022.5 975.7 0.2---------
2019-07-04 08:00:00 17.8 3.3 10.3--- 3840.0wxwxwx2wx--21022.6 975.7 0.5---------
2019-07-04 07:00:00 16.7 4.7 10.3--- 4540.0wxwxwx1wx---1022.8 975.7 0.7---------
2019-07-04 06:00:00 15.1 4.2 9.3 19.0 7.8 5 4840.0wx-1wx--11022.8 975.5 0.6- 0.012----- 13.1
2019-07-04 05:00:00 12.6 6.2 8.9--- 6550.0wx-0---01022.9 975.2 0.5---------
2019-07-04 04:00:00 9.4 6.5 7.6--- 8250.0wx-1wx--11023.3 975.0 0.2---------
2019-07-04 03:00:00 8.1 4.7 6.0--- 7950.0wx-wx1wx--11023.4 974.9 0.0---------
2019-07-04 02:00:00 8.4 4.2 5.9--- 7550.0wx-1wx--11023.1 974.7 0.0---------
2019-07-04 01:00:00 8.9 3.9 6.0--- 7150.0wx-1wx--11023.2 974.8 0.2---------
2019-07-04 00:00:00 10.3 4.0 6.8--- 6550.0wx-wx1wx--11023.0 974.9 0.5- 0.06------
2019-07-03 23:00:00 12.8 3.2 7.7--- 5250.0wxwxwx2wx--21022.4 974.7 0.6---------
2019-07-03 22:00:00 13.0 3.4 7.9--- 5250.0wxwxwx2wx--21022.2 974.6 0.8---------
2019-07-03 21:00:00 13.0 4.7 8.4--- 5740.0wxwxwx2wx--21022.0 974.4 1.1---------
2019-07-03 20:00:00 14.2 4.5 8.9--- 5250.0wxwxwxwx2wx--21021.5 974.1 0.8---------
2019-07-03 19:00:00 17.0 4.3 10.2--- 4350.0wxwxwxwx1wx--11020.7 973.8 0.7---------
2019-07-03 18:00:00 19.0 2.3 10.5 21.1 15.4- 3350.0wxwxwxwx2wx-921019.9 973.3 -0.1- 0.012------
2019-07-03 17:00:00 19.7 3.0 11.1--- 3350.0wxwxwxwx3wx--31019.8 973.3 -0.2---------
2019-07-03 16:00:00 20.4 3.6 11.6--- 3350.0wxwxwxwx2wx--21019.4 973.1 -0.7---------
2019-07-03 15:00:00 20.7 3.8 11.8--- 3350.0wxwxwxwx3wx-931019.7 973.4 -0.8---------
2019-07-03 14:00:00 20.7 3.8 11.8--- 3350.0wxwxwx4wx9941019.8 973.5 -0.7---------
2019-07-03 13:00:00 20.6 5.0 12.2--- 3650.0wxwxwx4wx--41020.1 973.8 -0.5---------
2019-07-03 12:00:00 20.2 4.2 11.7--- 3550.0wxwxwx4wx---1020.6 974.2 -0.2---------
2019-07-03 11:00:00 18.8 4.2 11.1--- 3850.0wxwxwx3wx--31020.8 974.2 -0.1---------
2019-07-03 10:00:00 18.3 5.2 11.2--- 4250.0wxwxwx4wx--41021.0 974.3 0.2---------
2019-07-03 09:00:00 17.5 5.1 10.8--- 4450.0wxwxwxwx3wx---1021.3 974.4 0.5---------
2019-07-03 08:00:00 16.6 5.5 10.5--- 4840.0wxwxwxwx3wx--31021.3 974.3 0.5---------
2019-07-03 07:00:00 16.4 5.4 10.4--- 4840.0wxwxwxwx3wx--31021.1 974.1 0.7---------
2019-07-03 06:00:00 15.5 6.8 10.5 22.2 11.4 10 5640.0wxwxwxwx2wx--21021.1 973.9 0.8- 0.012----- 9.2
2019-07-03 05:00:00 14.7 8.0 10.7--- 6440.0wx-wxwx2wx--21021.1 973.8 0.9---------
2019-07-03 04:00:00 12.8 8.5 10.1--- 7550.0wx-wxwx2wx--21021.0 973.4 0.9---------
2019-07-03 03:00:00 11.4 7.7 9.1--- 7850.0wx-wx3wx--31020.9 973.1 0.9---------
2019-07-03 02:00:00 12.7 7.8 9.7--- 7250.0wx-2wx--21020.5 972.9 0.8---------
2019-07-03 01:00:00 15.0 7.5 10.6--- 6150.0wx-3wx--31019.7 972.5 0.4---------
2019-07-03 00:00:00 14.9 7.2 10.4--- 6050.0wx-3wx--31019.4 972.2 0.3- 0.06------
6.6 ms

 

Print Friendly, PDF & Email